sensor_id;sensor_type;location;lat;lon;timestamp;noise_LAeq;noise_LA_min;noise_LA_max;noise_LA01;noise_LA95
72805;Laerm;60920;48.748;19.142;2023-07-31T00:02:13;33.42;32.14;34.54;;
72805;Laerm;60920;48.748;19.142;2023-07-31T00:04:38;33.37;31.85;34.57;;
72805;Laerm;60920;48.748;19.142;2023-07-31T00:07:04;33.32;32.14;34.53;;
72805;Laerm;60920;48.748;19.142;2023-07-31T00:09:31;33.29;31.83;34.72;;
72805;Laerm;60920;48.748;19.142;2023-07-31T00:11:57;33.27;32.00;34.44;;
72805;Laerm;60920;48.748;19.142;2023-07-31T00:14:22;33.24;31.91;34.44;;
72805;Laerm;60920;48.748;19.142;2023-07-31T00:16:47;33.25;32.05;34.43;;
72805;Laerm;60920;48.748;19.142;2023-07-31T00:19:12;33.26;32.01;34.80;;
72805;Laerm;60920;48.748;19.142;2023-07-31T00:21:38;33.26;31.94;34.40;;
72805;Laerm;60920;48.748;19.142;2023-07-31T00:24:03;33.25;31.82;34.44;;
72805;Laerm;60920;48.748;19.142;2023-07-31T00:26:28;33.23;31.88;34.41;;
72805;Laerm;60920;48.748;19.142;2023-07-31T00:28:54;33.24;31.90;34.52;;
72805;Laerm;60920;48.748;19.142;2023-07-31T00:31:19;33.26;31.50;34.82;;
72805;Laerm;60920;48.748;19.142;2023-07-31T00:33:44;33.27;31.71;34.42;;
72805;Laerm;60920;48.748;19.142;2023-07-31T00:36:10;33.28;31.94;34.53;;
72805;Laerm;60920;48.748;19.142;2023-07-31T00:38:35;33.30;32.13;34.53;;
72805;Laerm;60920;48.748;19.142;2023-07-31T00:41:00;33.30;32.10;34.36;;
72805;Laerm;60920;48.748;19.142;2023-07-31T00:43:26;33.30;32.04;34.71;;
72805;Laerm;60920;48.748;19.142;2023-07-31T00:45:51;33.31;31.92;34.51;;
72805;Laerm;60920;48.748;19.142;2023-07-31T00:48:16;33.29;31.84;34.68;;
72805;Laerm;60920;48.748;19.142;2023-07-31T00:50:42;33.31;32.07;34.65;;
72805;Laerm;60920;48.748;19.142;2023-07-31T00:53:07;33.31;31.94;34.64;;
72805;Laerm;60920;48.748;19.142;2023-07-31T00:55:33;33.31;31.83;34.57;;
72805;Laerm;60920;48.748;19.142;2023-07-31T00:57:58;33.35;32.03;34.82;;
72805;Laerm;60920;48.748;19.142;2023-07-31T01:00:23;33.34;31.97;34.77;;
72805;Laerm;60920;48.748;19.142;2023-07-31T01:02:49;33.39;31.73;34.68;;
72805;Laerm;60920;48.748;19.142;2023-07-31T01:05:15;33.41;32.12;34.55;;
72805;Laerm;60920;48.748;19.142;2023-07-31T01:10:16;33.46;32.05;34.77;;
72805;Laerm;60920;48.748;19.142;2023-07-31T01:12:42;33.45;31.99;34.60;;
72805;Laerm;60920;48.748;19.142;2023-07-31T01:15:09;33.47;32.20;34.75;;
72805;Laerm;60920;48.748;19.142;2023-07-31T01:17:39;33.46;32.18;34.96;;
72805;Laerm;60920;48.748;19.142;2023-07-31T01:20:05;33.48;32.35;34.57;;
72805;Laerm;60920;48.748;19.142;2023-07-31T01:27:25;33.64;31.76;34.86;;
72805;Laerm;60920;48.748;19.142;2023-07-31T01:32:39;33.37;31.86;34.64;;
72805;Laerm;60920;48.748;19.142;2023-07-31T01:35:05;33.33;32.08;34.52;;
72805;Laerm;60920;48.748;19.142;2023-07-31T01:37:31;33.30;31.58;34.50;;
72805;Laerm;60920;48.748;19.142;2023-07-31T01:39:56;33.28;31.91;34.50;;
72805;Laerm;60920;48.748;19.142;2023-07-31T01:42:22;33.28;32.07;34.46;;
72805;Laerm;60920;48.748;19.142;2023-07-31T01:44:47;33.27;31.89;34.49;;
72805;Laerm;60920;48.748;19.142;2023-07-31T01:47:12;33.27;31.88;34.58;;
72805;Laerm;60920;48.748;19.142;2023-07-31T01:49:38;33.27;32.02;34.38;;
72805;Laerm;60920;48.748;19.142;2023-07-31T01:52:03;33.27;32.14;34.44;;
72805;Laerm;60920;48.748;19.142;2023-07-31T01:54:28;33.28;32.07;34.52;;
72805;Laerm;60920;48.748;19.142;2023-07-31T01:56:54;33.28;31.93;34.48;;
72805;Laerm;60920;48.748;19.142;2023-07-31T01:59:19;33.28;32.06;34.61;;
72805;Laerm;60920;48.748;19.142;2023-07-31T02:01:44;33.29;31.89;34.47;;
72805;Laerm;60920;48.748;19.142;2023-07-31T02:04:10;33.28;31.89;34.47;;
72805;Laerm;60920;48.748;19.142;2023-07-31T02:06:35;33.31;31.98;34.57;;
72805;Laerm;60920;48.748;19.142;2023-07-31T02:09:00;33.31;31.93;34.60;;
72805;Laerm;60920;48.748;19.142;2023-07-31T02:11:26;33.30;32.04;34.49;;
72805;Laerm;60920;48.748;19.142;2023-07-31T02:13:51;33.28;31.92;34.40;;
72805;Laerm;60920;48.748;19.142;2023-07-31T02:16:16;33.27;31.90;34.42;;
72805;Laerm;60920;48.748;19.142;2023-07-31T02:18:41;33.26;31.97;34.55;;
72805;Laerm;60920;48.748;19.142;2023-07-31T02:21:07;33.26;31.98;34.56;;
72805;Laerm;60920;48.748;19.142;2023-07-31T02:23:32;33.27;31.86;34.60;;
72805;Laerm;60920;48.748;19.142;2023-07-31T02:25:57;33.28;31.97;34.52;;
72805;Laerm;60920;48.748;19.142;2023-07-31T02:28:23;33.30;32.06;34.62;;
72805;Laerm;60920;48.748;19.142;2023-07-31T02:30:49;33.35;32.20;34.49;;
72805;Laerm;60920;48.748;19.142;2023-07-31T02:33:15;33.37;32.04;34.62;;
72805;Laerm;60920;48.748;19.142;2023-07-31T02:35:41;33.39;32.16;34.66;;
72805;Laerm;60920;48.748;19.142;2023-07-31T02:38:06;33.41;31.93;34.84;;
72805;Laerm;60920;48.748;19.142;2023-07-31T02:40:32;33.42;31.88;34.52;;
72805;Laerm;60920;48.748;19.142;2023-07-31T02:42:57;33.43;32.25;34.78;;
72805;Laerm;60920;48.748;19.142;2023-07-31T02:45:22;33.44;32.07;34.59;;
72805;Laerm;60920;48.748;19.142;2023-07-31T02:47:48;33.44;32.05;34.57;;
72805;Laerm;60920;48.748;19.142;2023-07-31T02:50:13;33.45;32.12;34.65;;
72805;Laerm;60920;48.748;19.142;2023-07-31T02:52:39;33.46;32.06;34.55;;
72805;Laerm;60920;48.748;19.142;2023-07-31T02:55:04;33.46;32.30;34.99;;
72805;Laerm;60920;48.748;19.142;2023-07-31T02:57:30;33.49;32.02;34.81;;
72805;Laerm;60920;48.748;19.142;2023-07-31T02:59:55;33.51;32.21;34.75;;
72805;Laerm;60920;48.748;19.142;2023-07-31T03:02:20;33.51;32.19;34.67;;
72805;Laerm;60920;48.748;19.142;2023-07-31T03:04:46;33.54;32.17;34.71;;
72805;Laerm;60920;48.748;19.142;2023-07-31T03:07:11;33.56;32.14;34.79;;
72805;Laerm;60920;48.748;19.142;2023-07-31T03:09:36;33.59;32.35;34.89;;
72805;Laerm;60920;48.748;19.142;2023-07-31T03:12:01;33.58;32.20;34.94;;
72805;Laerm;60920;48.748;19.142;2023-07-31T03:14:27;33.59;32.44;34.99;;
72805;Laerm;60920;48.748;19.142;2023-07-31T03:16:53;33.56;32.11;35.03;;
72805;Laerm;60920;48.748;19.142;2023-07-31T03:19:18;33.58;32.16;34.84;;
72805;Laerm;60920;48.748;19.142;2023-07-31T03:21:43;33.57;32.27;34.87;;
72805;Laerm;60920;48.748;19.142;2023-07-31T03:24:08;33.56;31.90;34.83;;
72805;Laerm;60920;48.748;19.142;2023-07-31T03:26:34;33.55;32.22;34.66;;
72805;Laerm;60920;48.748;19.142;2023-07-31T03:29:00;33.55;32.03;34.91;;
72805;Laerm;60920;48.748;19.142;2023-07-31T03:31:25;33.50;32.18;34.66;;
72805;Laerm;60920;48.748;19.142;2023-07-31T03:33:50;33.47;32.08;34.59;;
72805;Laerm;60920;48.748;19.142;2023-07-31T03:36:16;33.47;32.17;34.68;;
72805;Laerm;60920;48.748;19.142;2023-07-31T03:38:41;33.46;32.19;34.80;;
72805;Laerm;60920;48.748;19.142;2023-07-31T03:41:06;33.49;32.13;35.00;;
72805;Laerm;60920;48.748;19.142;2023-07-31T03:43:32;33.48;32.24;34.78;;
72805;Laerm;60920;48.748;19.142;2023-07-31T03:45:59;33.50;32.15;34.90;;
72805;Laerm;60920;48.748;19.142;2023-07-31T03:48:24;33.50;32.11;34.66;;
72805;Laerm;60920;48.748;19.142;2023-07-31T03:50:50;33.52;32.12;34.85;;
72805;Laerm;60920;48.748;19.142;2023-07-31T03:53:15;33.50;32.08;34.87;;
72805;Laerm;60920;48.748;19.142;2023-07-31T03:55:40;33.52;32.32;34.78;;
72805;Laerm;60920;48.748;19.142;2023-07-31T03:58:06;33.53;31.99;34.72;;
72805;Laerm;60920;48.748;19.142;2023-07-31T04:00:31;33.55;32.27;34.91;;
72805;Laerm;60920;48.748;19.142;2023-07-31T04:02:56;33.55;32.13;35.47;;
72805;Laerm;60920;48.748;19.142;2023-07-31T04:05:21;33.56;32.32;34.73;;
72805;Laerm;60920;48.748;19.142;2023-07-31T04:07:47;33.57;32.05;34.92;;
72805;Laerm;60920;48.748;19.142;2023-07-31T04:10:13;33.57;31.86;34.82;;
72805;Laerm;60920;48.748;19.142;2023-07-31T04:12:38;33.56;32.32;34.91;;
72805;Laerm;60920;48.748;19.142;2023-07-31T04:15:03;33.56;32.26;34.75;;
72805;Laerm;60920;48.748;19.142;2023-07-31T04:17:29;33.55;32.18;35.04;;
72805;Laerm;60920;48.748;19.142;2023-07-31T04:19:54;33.56;32.27;35.01;;
72805;Laerm;60920;48.748;19.142;2023-07-31T04:22:19;33.63;32.45;34.87;;
72805;Laerm;60920;48.748;19.142;2023-07-31T04:24:45;33.69;32.48;34.99;;
72805;Laerm;60920;48.748;19.142;2023-07-31T04:27:10;33.72;32.46;34.82;;
72805;Laerm;60920;48.748;19.142;2023-07-31T04:29:35;33.83;32.51;35.84;;
72805;Laerm;60920;48.748;19.142;2023-07-31T04:32:01;33.71;32.37;34.96;;
72805;Laerm;60920;48.748;19.142;2023-07-31T04:34:26;33.79;32.42;35.27;;
72805;Laerm;60920;48.748;19.142;2023-07-31T04:36:51;33.83;32.65;35.09;;
72805;Laerm;60920;48.748;19.142;2023-07-31T04:39:16;33.86;32.61;35.12;;
72805;Laerm;60920;48.748;19.142;2023-07-31T04:41:42;33.90;32.53;35.20;;
72805;Laerm;60920;48.748;19.142;2023-07-31T04:44:07;33.92;32.39;35.15;;
72805;Laerm;60920;48.748;19.142;2023-07-31T04:46:32;33.92;32.19;35.55;;
72805;Laerm;60920;48.748;19.142;2023-07-31T04:48:58;33.92;32.49;35.16;;
72805;Laerm;60920;48.748;19.142;2023-07-31T04:51:23;33.92;32.57;35.21;;
72805;Laerm;60920;48.748;19.142;2023-07-31T04:53:48;33.92;32.70;35.59;;
72805;Laerm;60920;48.748;19.142;2023-07-31T04:56:14;33.93;32.34;35.32;;
72805;Laerm;60920;48.748;19.142;2023-07-31T04:58:40;34.64;32.97;36.52;;
72805;Laerm;60920;48.748;19.142;2023-07-31T05:01:05;34.59;33.19;36.41;;
72805;Laerm;60920;48.748;19.142;2023-07-31T05:03:31;35.47;33.28;38.19;;
72805;Laerm;60920;48.748;19.142;2023-07-31T05:05:56;35.33;33.42;37.95;;
72805;Laerm;60920;48.748;19.142;2023-07-31T05:08:21;35.18;33.39;37.94;;
72805;Laerm;60920;48.748;19.142;2023-07-31T05:10:47;35.10;33.11;37.84;;
72805;Laerm;60920;48.748;19.142;2023-07-31T05:13:12;34.73;32.71;36.90;;
72805;Laerm;60920;48.748;19.142;2023-07-31T05:15:37;34.72;32.75;37.34;;
72805;Laerm;60920;48.748;19.142;2023-07-31T05:18:03;34.51;32.90;36.70;;
72805;Laerm;60920;48.748;19.142;2023-07-31T05:20:28;34.59;33.05;36.50;;
72805;Laerm;60920;48.748;19.142;2023-07-31T05:22:54;35.19;32.77;38.03;;
72805;Laerm;60920;48.748;19.142;2023-07-31T05:25:19;35.97;33.50;38.06;;
72805;Laerm;60920;48.748;19.142;2023-07-31T05:27:44;36.31;33.18;38.41;;
72805;Laerm;60920;48.748;19.142;2023-07-31T05:30:10;36.34;33.52;38.21;;
72805;Laerm;60920;48.748;19.142;2023-07-31T05:32:35;36.34;33.26;38.16;;
72805;Laerm;60920;48.748;19.142;2023-07-31T05:35:00;36.20;33.44;38.12;;
72805;Laerm;60920;48.748;19.142;2023-07-31T05:37:26;35.94;33.44;38.02;;
72805;Laerm;60920;48.748;19.142;2023-07-31T05:39:51;36.27;33.56;38.36;;
72805;Laerm;60920;48.748;19.142;2023-07-31T05:42:17;36.35;33.58;38.29;;
72805;Laerm;60920;48.748;19.142;2023-07-31T05:44:42;36.52;33.48;38.65;;
72805;Laerm;60920;48.748;19.142;2023-07-31T05:47:08;36.68;33.49;38.52;;
72805;Laerm;60920;48.748;19.142;2023-07-31T05:49:34;36.91;33.34;39.08;;
72805;Laerm;60920;48.748;19.142;2023-07-31T05:51:59;36.88;33.66;38.77;;
72805;Laerm;60920;48.748;19.142;2023-07-31T05:54:24;36.66;33.67;38.65;;
72805;Laerm;60920;48.748;19.142;2023-07-31T05:56:50;36.81;33.20;39.31;;
72805;Laerm;60920;48.748;19.142;2023-07-31T05:59:15;36.84;33.04;39.60;;
72805;Laerm;60920;48.748;19.142;2023-07-31T06:01:41;36.95;33.57;38.98;;
72805;Laerm;60920;48.748;19.142;2023-07-31T06:04:06;36.78;33.43;38.77;;
72805;Laerm;60920;48.748;19.142;2023-07-31T06:06:32;36.14;33.03;38.04;;
72805;Laerm;60920;48.748;19.142;2023-07-31T06:08:57;35.33;33.21;37.64;;
72805;Laerm;60920;48.748;19.142;2023-07-31T06:11:22;34.74;33.34;36.46;;
72805;Laerm;60920;48.748;19.142;2023-07-31T06:13:50;34.62;33.17;36.20;;
72805;Laerm;60920;48.748;19.142;2023-07-31T06:16:16;34.64;33.19;36.42;;
72805;Laerm;60920;48.748;19.142;2023-07-31T06:18:42;34.82;33.18;36.89;;
72805;Laerm;60920;48.748;19.142;2023-07-31T06:21:07;34.70;32.97;36.46;;
72805;Laerm;60920;48.748;19.142;2023-07-31T06:23:32;34.27;32.92;35.78;;
72805;Laerm;60920;48.748;19.142;2023-07-31T06:25:58;34.08;32.51;35.52;;
72805;Laerm;60920;48.748;19.142;2023-07-31T06:28:30;34.10;32.71;35.54;;
72805;Laerm;60920;48.748;19.142;2023-07-31T06:30:55;34.13;32.73;35.46;;
72805;Laerm;60920;48.748;19.142;2023-07-31T06:33:21;34.18;32.94;35.65;;
72805;Laerm;60920;48.748;19.142;2023-07-31T06:35:46;34.21;32.82;35.46;;
72805;Laerm;60920;48.748;19.142;2023-07-31T06:38:12;34.24;32.84;35.47;;
72805;Laerm;60920;48.748;19.142;2023-07-31T06:40:37;34.26;32.71;35.88;;
72805;Laerm;60920;48.748;19.142;2023-07-31T06:43:02;34.26;32.88;35.61;;
72805;Laerm;60920;48.748;19.142;2023-07-31T06:45:36;34.25;32.84;35.48;;
72805;Laerm;60920;48.748;19.142;2023-07-31T06:48:02;34.22;32.75;35.59;;
72805;Laerm;60920;48.748;19.142;2023-07-31T06:50:28;34.21;32.81;35.45;;
72805;Laerm;60920;48.748;19.142;2023-07-31T06:52:53;34.16;32.89;35.51;;
72805;Laerm;60920;48.748;19.142;2023-07-31T06:55:20;34.13;32.61;35.34;;
72805;Laerm;60920;48.748;19.142;2023-07-31T06:57:49;34.12;32.68;35.32;;
72805;Laerm;60920;48.748;19.142;2023-07-31T07:00:15;34.20;32.99;35.56;;
72805;Laerm;60920;48.748;19.142;2023-07-31T07:02:40;34.26;32.93;35.70;;
72805;Laerm;60920;48.748;19.142;2023-07-31T07:05:06;34.36;32.95;35.66;;
72805;Laerm;60920;48.748;19.142;2023-07-31T07:07:32;34.58;33.02;35.92;;
72805;Laerm;60920;48.748;19.142;2023-07-31T07:09:57;34.71;33.14;36.01;;
72805;Laerm;60920;48.748;19.142;2023-07-31T07:12:24;34.72;33.35;36.24;;
72805;Laerm;60920;48.748;19.142;2023-07-31T07:14:50;34.75;33.49;36.29;;
72805;Laerm;60920;48.748;19.142;2023-07-31T07:17:15;34.75;33.20;36.01;;
72805;Laerm;60920;48.748;19.142;2023-07-31T07:19:40;34.73;33.30;35.98;;
72805;Laerm;60920;48.748;19.142;2023-07-31T07:22:07;34.74;33.35;36.10;;
72805;Laerm;60920;48.748;19.142;2023-07-31T07:24:32;34.74;33.29;37.88;;
72805;Laerm;60920;48.748;19.142;2023-07-31T07:26:57;34.71;33.40;36.25;;
72805;Laerm;60920;48.748;19.142;2023-07-31T07:29:22;34.71;33.17;36.00;;
72805;Laerm;60920;48.748;19.142;2023-07-31T07:31:48;34.73;33.22;35.96;;
72805;Laerm;60920;48.748;19.142;2023-07-31T07:34:13;34.75;33.30;35.95;;
72805;Laerm;60920;48.748;19.142;2023-07-31T07:36:38;34.78;33.45;35.97;;
72805;Laerm;60920;48.748;19.142;2023-07-31T07:39:04;34.78;33.45;36.03;;
72805;Laerm;60920;48.748;19.142;2023-07-31T07:41:29;34.78;33.40;36.16;;
72805;Laerm;60920;48.748;19.142;2023-07-31T07:43:54;34.90;33.46;36.32;;
72805;Laerm;60920;48.748;19.142;2023-07-31T07:46:20;34.87;33.53;36.37;;
72805;Laerm;60920;48.748;19.142;2023-07-31T07:48:45;34.87;33.19;36.29;;
72805;Laerm;60920;48.748;19.142;2023-07-31T07:51:10;35.74;33.54;58.02;;
72805;Laerm;60920;48.748;19.142;2023-07-31T07:53:36;35.67;33.55;43.87;;
72805;Laerm;60920;48.748;19.142;2023-07-31T07:56:01;34.81;33.53;36.10;;
72805;Laerm;60920;48.748;19.142;2023-07-31T07:58:27;34.80;33.52;36.03;;
72805;Laerm;60920;48.748;19.142;2023-07-31T08:00:52;34.80;33.23;36.30;;
72805;Laerm;60920;48.748;19.142;2023-07-31T08:03:17;34.77;33.31;36.28;;
72805;Laerm;60920;48.748;19.142;2023-07-31T08:05:43;34.77;33.30;35.97;;
72805;Laerm;60920;48.748;19.142;2023-07-31T08:08:13;34.75;32.93;36.33;;
72805;Laerm;60920;48.748;19.142;2023-07-31T08:10:39;36.07;33.53;58.24;;
72805;Laerm;60920;48.748;19.142;2023-07-31T08:13:04;38.63;33.75;58.85;;
72805;Laerm;60920;48.748;19.142;2023-07-31T08:15:29;37.67;35.77;40.21;;
72805;Laerm;60920;48.748;19.142;2023-07-31T08:17:55;36.81;33.27;40.34;;
72805;Laerm;60920;48.748;19.142;2023-07-31T08:20:20;34.70;33.31;36.11;;
72805;Laerm;60920;48.748;19.142;2023-07-31T08:22:46;34.69;33.20;36.24;;
72805;Laerm;60920;48.748;19.142;2023-07-31T08:25:11;34.71;33.21;35.95;;
72805;Laerm;60920;48.748;19.142;2023-07-31T08:27:36;34.66;33.19;35.81;;
72805;Laerm;60920;48.748;19.142;2023-07-31T08:30:02;34.78;33.29;42.46;;
72805;Laerm;60920;48.748;19.142;2023-07-31T08:32:27;34.81;33.35;44.27;;
72805;Laerm;60920;48.748;19.142;2023-07-31T08:34:53;34.95;33.33;47.86;;
72805;Laerm;60920;48.748;19.142;2023-07-31T08:37:18;35.15;33.19;56.96;;
72805;Laerm;60920;48.748;19.142;2023-07-31T08:39:43;35.05;33.20;59.34;;
72805;Laerm;60920;48.748;19.142;2023-07-31T08:42:08;35.36;33.18;55.30;;
72805;Laerm;60920;48.748;19.142;2023-07-31T08:44:34;34.68;33.02;41.24;;
72805;Laerm;60920;48.748;19.142;2023-07-31T08:47:00;34.84;33.15;45.36;;
72805;Laerm;60920;48.748;19.142;2023-07-31T08:49:26;35.13;33.29;57.32;;
72805;Laerm;60920;48.748;19.142;2023-07-31T08:51:51;34.64;33.19;38.52;;
72805;Laerm;60920;48.748;19.142;2023-07-31T08:54:17;34.64;33.21;40.94;;
72805;Laerm;60920;48.748;19.142;2023-07-31T08:56:42;34.81;33.29;43.48;;
72805;Laerm;60920;48.748;19.142;2023-07-31T08:59:08;35.08;33.21;50.13;;
72805;Laerm;60920;48.748;19.142;2023-07-31T09:01:36;34.65;32.97;43.45;;
72805;Laerm;60920;48.748;19.142;2023-07-31T09:04:03;34.64;32.99;47.05;;
72805;Laerm;60920;48.748;19.142;2023-07-31T09:06:29;34.57;33.18;36.65;;
72805;Laerm;60920;48.748;19.142;2023-07-31T09:08:55;34.57;33.11;39.97;;
72805;Laerm;60920;48.748;19.142;2023-07-31T09:11:21;34.57;33.08;36.62;;
72805;Laerm;60920;48.748;19.142;2023-07-31T09:13:46;34.56;33.09;36.20;;
72805;Laerm;60920;48.748;19.142;2023-07-31T09:16:13;36.80;33.24;58.01;;
72805;Laerm;60920;48.748;19.142;2023-07-31T09:18:54;38.46;35.87;40.92;;
72805;Laerm;60920;48.748;19.142;2023-07-31T09:21:21;37.83;33.43;53.75;;
72805;Laerm;60920;48.748;19.142;2023-07-31T09:23:47;37.71;33.31;55.42;;
72805;Laerm;60920;48.748;19.142;2023-07-31T09:26:31;35.50;33.23;53.80;;
72805;Laerm;60920;48.748;19.142;2023-07-31T09:28:57;34.49;32.75;35.73;;
72805;Laerm;60920;48.748;19.142;2023-07-31T09:34:17;34.92;33.03;54.19;;
72805;Laerm;60920;48.748;19.142;2023-07-31T09:36:43;36.28;33.05;54.01;;
72805;Laerm;60920;48.748;19.142;2023-07-31T09:39:13;34.72;32.99;52.45;;
72805;Laerm;60920;48.748;19.142;2023-07-31T09:41:39;34.47;33.10;35.71;;
72805;Laerm;60920;48.748;19.142;2023-07-31T09:44:05;34.46;32.92;35.75;;
72805;Laerm;60920;48.748;19.142;2023-07-31T09:46:30;34.48;32.94;35.88;;
72805;Laerm;60920;48.748;19.142;2023-07-31T09:51:37;34.50;33.19;35.88;;
72805;Laerm;60920;48.748;19.142;2023-07-31T09:54:12;38.65;32.97;72.90;;
72805;Laerm;60920;48.748;19.142;2023-07-31T09:56:46;34.43;32.95;38.73;;
72805;Laerm;60920;48.748;19.142;2023-07-31T09:59:16;34.56;32.90;44.50;;
72805;Laerm;60920;48.748;19.142;2023-07-31T10:01:42;34.51;33.05;37.98;;
72805;Laerm;60920;48.748;19.142;2023-07-31T10:04:09;34.66;33.33;44.59;;
72805;Laerm;60920;48.748;19.142;2023-07-31T10:06:35;34.97;33.67;42.82;;
72805;Laerm;60920;48.748;19.142;2023-07-31T10:09:02;36.20;33.67;56.77;;
72805;Laerm;60920;48.748;19.142;2023-07-31T10:11:28;37.39;34.30;54.37;;
72805;Laerm;60920;48.748;19.142;2023-07-31T10:13:55;35.86;34.10;43.02;;
72805;Laerm;60920;48.748;19.142;2023-07-31T10:16:20;36.43;34.19;50.94;;
72805;Laerm;60920;48.748;19.142;2023-07-31T10:18:46;36.49;34.10;57.44;;
72805;Laerm;60920;48.748;19.142;2023-07-31T10:21:12;36.51;33.91;49.82;;
72805;Laerm;60920;48.748;19.142;2023-07-31T10:23:37;35.60;33.81;39.08;;
72805;Laerm;60920;48.748;19.142;2023-07-31T10:26:04;35.59;34.18;37.00;;
72805;Laerm;60920;48.748;19.142;2023-07-31T10:28:31;35.42;34.04;36.73;;
72805;Laerm;60920;48.748;19.142;2023-07-31T10:30:57;35.51;34.13;37.07;;
72805;Laerm;60920;48.748;19.142;2023-07-31T10:33:23;35.43;34.02;36.89;;
72805;Laerm;60920;48.748;19.142;2023-07-31T10:35:48;35.60;34.22;36.75;;
72805;Laerm;60920;48.748;19.142;2023-07-31T10:38:13;35.60;34.29;38.96;;
72805;Laerm;60920;48.748;19.142;2023-07-31T10:40:39;35.56;34.02;36.82;;
72805;Laerm;60920;48.748;19.142;2023-07-31T10:43:04;35.71;33.98;41.19;;
72805;Laerm;60920;48.748;19.142;2023-07-31T10:48:00;39.46;34.14;52.57;;
72805;Laerm;60920;48.748;19.142;2023-07-31T10:50:28;38.02;34.21;44.10;;
72805;Laerm;60920;48.748;19.142;2023-07-31T10:52:57;36.29;34.06;44.25;;
72805;Laerm;60920;48.748;19.142;2023-07-31T10:55:27;36.41;34.03;42.94;;
72805;Laerm;60920;48.748;19.142;2023-07-31T10:57:53;35.86;33.87;39.23;;
72805;Laerm;60920;48.748;19.142;2023-07-31T11:08:12;34.65;33.03;36.33;;
72805;Laerm;60920;48.748;19.142;2023-07-31T11:10:37;35.13;33.28;39.41;;
72805;Laerm;60920;48.748;19.142;2023-07-31T11:13:03;34.98;33.33;36.44;;
72805;Laerm;60920;48.748;19.142;2023-07-31T11:15:29;34.95;33.61;36.34;;
72805;Laerm;60920;48.748;19.142;2023-07-31T11:17:55;34.69;33.15;36.36;;
72805;Laerm;60920;48.748;19.142;2023-07-31T11:20:23;35.92;33.45;40.71;;
72805;Laerm;60920;48.748;19.142;2023-07-31T11:22:49;34.93;33.50;36.78;;
72805;Laerm;60920;48.748;19.142;2023-07-31T11:25:14;35.34;33.62;38.90;;
72805;Laerm;60920;48.748;19.142;2023-07-31T11:27:40;34.85;33.42;36.13;;
72805;Laerm;60920;48.748;19.142;2023-07-31T11:30:09;34.70;32.90;36.92;;
72805;Laerm;60920;48.748;19.142;2023-07-31T11:32:36;34.78;33.56;36.31;;
72805;Laerm;60920;48.748;19.142;2023-07-31T11:35:01;34.97;33.42;36.46;;
72805;Laerm;60920;48.748;19.142;2023-07-31T11:37:39;34.78;33.27;37.16;;
72805;Laerm;60920;48.748;19.142;2023-07-31T11:40:05;34.95;33.59;37.18;;
72805;Laerm;60920;48.748;19.142;2023-07-31T11:42:31;34.60;32.86;37.27;;
72805;Laerm;60920;48.748;19.142;2023-07-31T11:44:56;34.23;32.61;36.18;;
72805;Laerm;60920;48.748;19.142;2023-07-31T11:47:21;34.98;33.17;37.78;;
72805;Laerm;60920;48.748;19.142;2023-07-31T11:49:46;34.94;33.12;39.40;;
72805;Laerm;60920;48.748;19.142;2023-07-31T11:52:13;34.12;32.37;36.12;;
72805;Laerm;60920;48.748;19.142;2023-07-31T11:54:39;34.04;32.37;36.67;;
72805;Laerm;60920;48.748;19.142;2023-07-31T11:57:05;35.07;33.27;38.23;;
72805;Laerm;60920;48.748;19.142;2023-07-31T11:59:30;35.88;33.33;40.58;;
72805;Laerm;60920;48.748;19.142;2023-07-31T12:01:56;34.66;32.76;37.36;;
72805;Laerm;60920;48.748;19.142;2023-07-31T12:04:21;34.65;33.18;36.31;;
72805;Laerm;60920;48.748;19.142;2023-07-31T12:06:47;34.51;32.20;37.81;;
72805;Laerm;60920;48.748;19.142;2023-07-31T12:09:14;33.61;32.14;34.93;;
72805;Laerm;60920;48.748;19.142;2023-07-31T12:11:43;33.99;32.34;35.55;;
72805;Laerm;60920;48.748;19.142;2023-07-31T12:14:19;34.20;32.56;36.83;;
72805;Laerm;60920;48.748;19.142;2023-07-31T12:16:44;34.74;32.81;36.21;;
72805;Laerm;60920;48.748;19.142;2023-07-31T12:19:09;34.51;33.05;36.45;;
72805;Laerm;60920;48.748;19.142;2023-07-31T12:21:34;34.06;32.55;35.58;;
72805;Laerm;60920;48.748;19.142;2023-07-31T12:24:00;32.89;31.27;34.78;;
72805;Laerm;60920;48.748;19.142;2023-07-31T12:26:25;32.84;31.28;34.68;;
72805;Laerm;60920;48.748;19.142;2023-07-31T12:28:59;32.82;31.35;34.13;;
72805;Laerm;60920;48.748;19.142;2023-07-31T12:31:25;32.78;31.01;35.58;;
72805;Laerm;60920;48.748;19.142;2023-07-31T12:33:52;32.62;31.16;33.79;;
72805;Laerm;60920;48.748;19.142;2023-07-31T12:36:18;32.65;31.28;34.21;;
72805;Laerm;60920;48.748;19.142;2023-07-31T12:38:45;32.65;31.28;35.28;;
72805;Laerm;60920;48.748;19.142;2023-07-31T12:41:10;32.86;31.21;41.27;;
72805;Laerm;60920;48.748;19.142;2023-07-31T12:43:36;32.50;31.08;34.26;;
72805;Laerm;60920;48.748;19.142;2023-07-31T12:46:02;32.46;30.92;33.78;;
72805;Laerm;60920;48.748;19.142;2023-07-31T12:48:27;32.49;30.95;35.25;;
72805;Laerm;60920;48.748;19.142;2023-07-31T12:50:52;32.45;31.07;33.82;;
72805;Laerm;60920;48.748;19.142;2023-07-31T12:53:18;32.54;31.11;36.67;;
72805;Laerm;60920;48.748;19.142;2023-07-31T12:55:43;32.62;31.09;37.81;;
72805;Laerm;60920;48.748;19.142;2023-07-31T12:58:09;32.48;31.03;33.98;;
72805;Laerm;60920;48.748;19.142;2023-07-31T13:00:34;32.54;30.97;36.53;;
72805;Laerm;60920;48.748;19.142;2023-07-31T13:02:59;32.46;31.02;36.65;;
72805;Laerm;60920;48.748;19.142;2023-07-31T13:05:25;32.57;30.85;36.33;;
72805;Laerm;60920;48.748;19.142;2023-07-31T13:07:51;32.35;30.44;36.98;;
72805;Laerm;60920;48.748;19.142;2023-07-31T13:10:16;32.36;30.93;35.34;;
72805;Laerm;60920;48.748;19.142;2023-07-31T13:12:41;32.49;30.82;38.68;;
72805;Laerm;60920;48.748;19.142;2023-07-31T13:15:07;32.23;30.79;34.51;;
72805;Laerm;60920;48.748;19.142;2023-07-31T13:17:32;32.22;30.77;35.55;;
72805;Laerm;60920;48.748;19.142;2023-07-31T13:19:58;32.34;30.99;36.95;;
72805;Laerm;60920;48.748;19.142;2023-07-31T13:22:24;32.34;30.53;38.78;;
72805;Laerm;60920;48.748;19.142;2023-07-31T13:24:49;32.44;30.83;41.55;;
72805;Laerm;60920;48.748;19.142;2023-07-31T13:27:14;32.60;30.90;42.20;;
72805;Laerm;60920;48.748;19.142;2023-07-31T13:29:48;32.45;30.87;42.24;;
72805;Laerm;60920;48.748;19.142;2023-07-31T13:32:15;32.27;30.83;36.76;;
72805;Laerm;60920;48.748;19.142;2023-07-31T13:34:40;32.33;30.53;35.84;;
72805;Laerm;60920;48.748;19.142;2023-07-31T13:37:06;32.27;31.02;34.51;;
72805;Laerm;60920;48.748;19.142;2023-07-31T13:39:31;32.34;30.76;35.70;;
72805;Laerm;60920;48.748;19.142;2023-07-31T13:41:56;32.55;30.58;38.54;;
72805;Laerm;60920;48.748;19.142;2023-07-31T13:44:21;32.10;30.57;35.75;;
72805;Laerm;60920;48.748;19.142;2023-07-31T13:46:47;32.14;30.64;36.30;;
72805;Laerm;60920;48.748;19.142;2023-07-31T13:49:12;31.94;30.12;39.48;;
72805;Laerm;60920;48.748;19.142;2023-07-31T13:51:37;31.70;30.11;34.40;;